Time;durP1;ratioP1;P1;durP2;ratioP2;P2;SDS_P1;SDS_P2;PMS_P1;PMS_P2;Temp;Humidity;BMP_temperature;BMP_pressure;BME280_temperature;BME280_humidity;BME280_pressure;Samples;Min_cycle;Max_cycle;Signal;HPM_P1;HPM_P2
2021/08/27 00:01:27;;;;;;;0.20;0.20;;;;;;;15.66;90.73;99905.69;4965942;28;20035;-76
2021/08/27 00:03:54;;;;;;;0.17;0.17;;;;;;;15.73;90.65;99921.31;4948200;28;20515;-76
2021/08/27 00:06:20;;;;;;;0.20;0.20;;;;;;;15.77;90.75;99928.13;4947026;28;20589;-76
2021/08/27 00:08:46;;;;;;;0.20;0.20;;;;;;;15.73;90.81;99916.72;4968685;28;20070;-75
2021/08/27 00:11:13;;;;;;;0.20;0.20;;;;;;;15.67;90.99;99918.28;4985985;28;20025;-77
2021/08/27 00:13:40;;;;;;;0.20;0.20;;;;;;;15.71;90.87;99917.91;4986820;28;20060;-76
2021/08/27 00:16:06;;;;;;;0.20;0.20;;;;;;;15.71;91.13;99923.38;4988041;28;20167;-75
2021/08/27 00:18:32;;;;;;;0.20;0.20;;;;;;;15.71;91.25;99929.66;4977344;28;20095;-75
2021/08/27 00:20:58;;;;;;;0.20;0.20;;;;;;;15.72;91.39;99919.59;4981599;28;20043;-75
2021/08/27 00:23:24;;;;;;;0.20;0.20;;;;;;;15.69;91.53;99920.00;4983953;28;20041;-75
2021/08/27 00:25:50;;;;;;;0.20;0.20;;;;;;;15.70;91.40;99922.53;4979150;28;20031;-74
2021/08/27 00:28:16;;;;;;;0.20;0.20;;;;;;;15.68;91.51;99924.56;4935495;28;20548;-75
2021/08/27 00:30:42;;;;;;;0.20;0.20;;;;;;;15.66;91.66;99924.75;4928723;29;20039;-76
2021/08/27 00:33:08;;;;;;;0.20;0.20;;;;;;;15.64;91.83;99918.59;4959960;28;20094;-74
2021/08/27 00:35:34;;;;;;;0.20;0.20;;;;;;;15.67;91.92;99921.00;4956013;28;20043;-75
2021/08/27 00:37:59;;;;;;;0.20;0.20;;;;;;;15.65;91.73;99914.88;4955401;28;20480;-77
2021/08/27 00:40:25;;;;;;;0.20;0.20;;;;;;;15.66;91.80;99915.72;4962317;28;20473;-75
2021/08/27 00:42:51;;;;;;;0.20;0.20;;;;;;;15.70;91.68;99927.97;4945616;28;20687;-76
2021/08/27 00:45:17;;;;;;;0.10;0.10;;;;;;;15.73;91.81;99916.72;4965557;28;20051;-76
2021/08/27 00:47:43;;;;;;;0.20;0.20;;;;;;;15.72;91.79;99919.59;4960782;28;20394;-76
2021/08/27 00:50:09;;;;;;;0.20;0.20;;;;;;;15.62;92.20;99909.75;4962988;28;20460;-75
2021/08/27 00:52:37;;;;;;;0.20;0.20;;;;;;;15.70;92.59;99910.78;4952727;28;20042;-75
2021/08/27 00:55:04;;;;;;;0.20;0.20;;;;;;;15.66;92.39;99922.03;4963352;28;20456;-76
2021/08/27 00:57:30;;;;;;;0.20;0.20;;;;;;;15.62;92.57;99917.94;4954531;28;20509;-76
2021/08/27 00:59:55;;;;;;;0.17;0.17;;;;;;;15.61;92.69;99918.09;4969903;28;20121;-76
2021/08/27 01:02:21;;;;;;;0.20;0.20;;;;;;;15.58;92.89;99908.41;4964746;28;20046;-76
2021/08/27 01:04:47;;;;;;;0.20;0.20;;;;;;;15.59;92.79;99918.28;4963537;28;20035;-76
2021/08/27 01:07:23;;;;;;;0.20;0.20;;;;;;;15.54;92.89;99915.25;4962118;28;20047;-75
2021/08/27 01:10:04;;;;;;;0.20;0.20;;;;;;;15.54;93.00;99911.66;4963766;28;20389;-76
2021/08/27 01:12:41;;;;;;;0.20;0.20;;;;;;;15.57;93.11;99925.78;4924520;28;20035;-76
2021/08/27 01:15:18;;;;;;;0.20;0.20;;;;;;;15.54;92.97;99917.97;4962328;28;20059;-76
2021/08/27 01:17:55;;;;;;;0.20;0.20;;;;;;;15.57;93.10;99928.50;4958582;28;20046;-76
2021/08/27 01:21:04;;;;;;;0.20;0.20;;;;;;;15.52;93.32;99919.16;4949554;29;20095;-76
2021/08/27 01:23:38;;;;;;;0.20;0.20;;;;;;;15.57;93.34;99923.03;4958298;28;20042;-76
2021/08/27 01:26:05;;;;;;;0.20;0.20;;;;;;;15.51;93.08;99931.94;4953511;28;20042;-77
2021/08/27 01:28:32;;;;;;;0.20;0.20;;;;;;;15.53;93.33;99920.84;4953074;28;20094;-77
2021/08/27 01:31:08;;;;;;;0.17;0.17;;;;;;;15.52;93.19;99920.00;4963062;28;20533;-76
2021/08/27 01:33:34;;;;;;;0.20;0.20;;;;;;;15.55;93.27;99919.66;4961340;28;20039;-76
2021/08/27 01:36:02;;;;;;;0.20;0.20;;;;;;;15.52;93.17;99909.13;4966602;28;20047;-76
2021/08/27 01:38:33;;;;;;;0.20;0.20;;;;;;;15.50;93.14;99913.03;4952801;28;21055;-75
2021/08/27 01:40:59;;;;;;;0.20;0.20;;;;;;;15.49;93.38;99909.47;4960617;28;20230;-76
2021/08/27 01:43:26;;;;;;;0.20;0.20;;;;;;;15.47;93.64;99911.53;4959574;28;20556;-74
2021/08/27 01:45:57;;;;;;;0.10;0.10;;;;;;;15.46;93.60;99908.97;4968898;28;20039;-75
2021/08/27 01:48:24;;;;;;;0.10;0.10;;;;;;;15.46;93.34;99920.72;4942354;29;20130;-75
2021/08/27 01:50:54;;;;;;;0.20;0.20;;;;;;;15.43;93.71;99912.91;4948411;28;20499;-76
2021/08/27 01:53:23;;;;;;;0.10;0.10;;;;;;;15.42;93.72;99919.38;4958052;28;20039;-75
2021/08/27 01:55:48;;;;;;;0.20;0.20;;;;;;;15.39;93.72;99926.03;4985010;28;20098;-74
2021/08/27 01:58:15;;;;;;;0.20;0.20;;;;;;;15.39;93.55;99925.16;4981800;28;20052;-75
2021/08/27 02:00:41;;;;;;;0.20;0.20;;;;;;;15.36;93.63;99931.84;4993676;28;20453;-73
2021/08/27 02:03:07;;;;;;;0.20;0.20;;;;;;;15.30;93.59;99918.91;4975232;28;20038;-75
2021/08/27 02:05:34;;;;;;;0.10;0.10;;;;;;;15.32;93.59;99926.88;4979481;28;20050;-77
2021/08/27 02:08:00;;;;;;;0.20;0.20;;;;;;;15.27;93.50;99921.97;4981670;28;20057;-75
2021/08/27 02:10:26;;;;;;;0.10;0.10;;;;;;;15.32;93.63;99932.34;4961839;28;20035;-75
2021/08/27 02:12:52;;;;;;;0.10;0.10;;;;;;;15.30;93.54;99932.53;4979620;28;20524;-76
2021/08/27 02:15:21;;;;;;;0.20;0.20;;;;;;;15.30;93.43;99937.13;4964142;28;20051;-75
2021/08/27 02:17:50;;;;;;;0.20;0.20;;;;;;;15.25;93.17;99928.59;4955915;28;20035;-75
2021/08/27 02:20:16;;;;;;;0.20;0.20;;;;;;;15.30;93.33;99928.94;4959676;28;20047;-75
2021/08/27 02:22:46;;;;;;;0.20;0.20;;;;;;;15.28;93.51;99929.09;4962601;28;20058;-76
2021/08/27 02:25:14;;;;;;;0.20;0.20;;;;;;;15.30;93.30;99935.25;4948142;28;20163;-75
2021/08/27 02:27:41;;;;;;;0.20;0.20;;;;;;;15.27;93.88;99926.56;4973823;28;20053;-77
2021/08/27 02:30:08;;;;;;;0.20;0.20;;;;;;;15.33;93.68;99943.06;4967275;28;20053;-75
2021/08/27 02:32:34;;;;;;;0.13;0.13;;;;;;;15.35;93.36;99945.59;4953226;28;20074;-76
2021/08/27 02:35:03;;;;;;;0.20;0.20;;;;;;;15.35;93.17;99941.00;4962744;28;20043;-76
2021/08/27 02:37:32;;;;;;;0.20;0.20;;;;;;;15.32;93.51;99940.50;4950144;28;20118;-76
2021/08/27 02:39:58;;;;;;;0.20;0.20;;;;;;;15.31;93.34;99933.38;4931625;29;20043;-76
2021/08/27 02:42:27;;;;;;;0.20;0.20;;;;;;;15.29;93.24;99935.44;4959833;28;20058;-78
2021/08/27 02:44:54;;;;;;;0.20;0.20;;;;;;;15.33;93.58;99947.69;4953727;28;20059;-75
2021/08/27 02:47:20;;;;;;;0.20;0.20;;;;;;;15.34;93.25;99938.47;4959268;28;20046;-76
2021/08/27 02:49:46;;;;;;;0.20;0.20;;;;;;;15.34;93.22;99952.09;4968643;28;20118;-76
2021/08/27 02:52:13;;;;;;;0.20;0.20;;;;;;;15.35;92.90;99953.78;4950444;28;20050;-75
2021/08/27 02:54:57;;;;;;;0.20;0.20;;;;;;;15.31;93.09;99956.00;4960905;28;20047;-76
2021/08/27 02:57:25;;;;;;;0.20;0.20;;;;;;;15.35;93.12;99962.81;4924274;28;20134;-76
2021/08/27 02:59:54;;;;;;;0.17;0.17;;;;;;;15.35;92.78;99951.91;4941880;28;20043;-75
2021/08/27 03:02:19;;;;;;;0.20;0.20;;;;;;;15.39;92.64;99957.84;4958992;28;20129;-76
2021/08/27 03:04:52;;;;;;;0.20;0.20;;;;;;;15.33;92.56;99948.53;4964202;28;20101;-77
2021/08/27 03:07:22;;;;;;;0.20;0.20;;;;;;;15.39;92.45;99958.72;4956633;28;20043;-80
2021/08/27 03:09:57;;;;;;;0.10;0.10;;;;;;;15.37;92.32;99955.31;4976640;28;20042;-78
2021/08/27 03:12:32;;;;;;;0.20;0.20;;;;;;;15.36;92.09;99958.22;4958750;28;20500;-77
2021/08/27 03:15:00;;;;;;;0.20;0.20;;;;;;;15.40;91.96;99954.97;4959775;28;20203;-76
2021/08/27 03:17:28;;;;;;;0.20;0.20;;;;;;;15.39;91.63;99963.31;4966508;28;20031;-75
2021/08/27 03:20:08;;;;;;;0.20;0.20;;;;;;;15.43;91.45;99970.97;4972791;28;20051;-75
2021/08/27 03:22:40;;;;;;;0.20;0.20;;;;;;;15.45;91.31;99962.59;4965556;28;20043;-75
2021/08/27 03:25:10;;;;;;;0.20;0.20;;;;;;;15.52;91.10;99963.59;4944569;28;20053;-76
2021/08/27 03:27:42;;;;;;;0.20;0.20;;;;;;;15.56;90.90;99975.00;4949303;28;20198;-77
2021/08/27 03:30:12;;;;;;;0.20;0.20;;;;;;;15.55;90.82;99974.16;4944596;28;20187;-82
2021/08/27 03:32:39;;;;;;;0.20;0.20;;;;;;;15.56;90.94;99975.84;4968014;28;20519;-76
2021/08/27 03:35:05;;;;;;;0.20;0.20;;;;;;;15.57;90.93;99979.44;4944060;28;20126;-75
2021/08/27 03:37:33;;;;;;;0.10;0.10;;;;;;;15.59;91.08;99988.28;4960003;28;20568;-74
2021/08/27 03:40:01;;;;;;;0.20;0.20;;;;;;;15.60;90.67;99990.81;4964678;28;20129;-79
2021/08/27 03:42:27;;;;;;;0.20;0.20;;;;;;;15.60;90.61;99998.16;4957157;28;20070;-78
2021/08/27 03:44:53;;;;;;;0.20;0.20;;;;;;;15.59;90.41;99986.41;4957258;28;20144;-76
2021/08/27 03:47:19;;;;;;;0.20;0.20;;;;;;;15.62;90.54;99996.97;4955205;28;20039;-75
2021/08/27 03:49:47;;;;;;;0.20;0.20;;;;;;;15.65;90.04;100002.09;4942174;28;20062;-78
2021/08/27 03:52:14;;;;;;;0.20;0.20;;;;;;;15.70;90.43;99998.00;4942186;28;20035;-77
2021/08/27 03:54:40;;;;;;;0.20;0.20;;;;;;;15.73;89.97;99997.66;4965891;28;20046;-79
2021/08/27 03:57:06;;;;;;;0.20;0.20;;;;;;;15.77;90.07;100015.34;4957079;28;20046;-77
2021/08/27 03:59:32;;;;;;;0.20;0.20;;;;;;;15.72;89.85;99999.50;4964701;28;20050;-77
2021/08/27 04:02:00;;;;;;;0.20;0.20;;;;;;;15.79;89.92;100007.84;4956088;28;20129;-78
2021/08/27 04:04:26;;;;;;;0.20;0.20;;;;;;;15.82;89.18;100008.31;4922322;28;20342;-77
2021/08/27 04:07:02;;;;;;;0.20;0.20;;;;;;;15.87;89.26;100010.56;4964569;28;20202;-77
2021/08/27 04:09:30;;;;;;;0.20;0.20;;;;;;;15.85;88.82;100007.97;4962011;28;20043;-78
2021/08/27 04:11:56;;;;;;;0.20;0.20;;;;;;;15.84;88.69;100006.28;4968070;28;20067;-76
2021/08/27 04:14:22;;;;;;;0.55;0.20;;;;;;;15.87;88.48;100010.56;4967664;28;20065;-78
2021/08/27 04:16:48;;;;;;;0.20;0.20;;;;;;;15.89;88.46;100009.31;4972208;28;20043;-78
2021/08/27 04:19:15;;;;;;;0.20;0.20;;;;;;;15.90;88.29;100005.59;4969094;28;20424;-77
2021/08/27 04:21:42;;;;;;;0.20;0.20;;;;;;;15.90;87.91;100004.72;4971134;28;20102;-78
2021/08/27 04:24:08;;;;;;;0.20;0.20;;;;;;;15.93;87.84;100015.28;4970692;28;20484;-78
2021/08/27 04:26:37;;;;;;;0.20;0.20;;;;;;;15.90;87.56;100002.00;4953799;28;20095;-77
2021/08/27 04:29:03;;;;;;;0.20;0.20;;;;;;;15.97;87.26;100011.16;4963381;28;20044;-79
2021/08/27 04:31:29;;;;;;;0.20;0.20;;;;;;;16.01;87.10;100017.97;4948862;28;20110;-78
2021/08/27 04:33:58;;;;;;;0.20;0.20;;;;;;;16.06;86.61;100021.03;4957396;28;20134;-77
2021/08/27 04:36:25;;;;;;;0.20;0.20;;;;;;;16.03;86.63;100018.66;4970121;28;20086;-77
2021/08/27 04:38:59;;;;;;;0.20;0.20;;;;;;;16.11;86.64;100023.22;4963302;28;20503;-79
2021/08/27 04:41:24;;;;;;;0.20;0.20;;;;;;;16.08;86.19;100018.94;4964098;28;20053;-78
2021/08/27 04:43:50;;;;;;;0.20;0.20;;;;;;;16.10;86.25;100016.06;4970569;28;20444;-79
2021/08/27 04:46:17;;;;;;;0.20;0.20;;;;;;;16.11;86.34;100028.66;4965881;28;20046;-79
2021/08/27 04:48:48;;;;;;;0.20;0.20;;;;;;;16.15;86.11;100035.47;4969001;28;20097;-79
2021/08/27 04:51:16;;;;;;;0.20;0.20;;;;;;;16.12;86.00;100031.22;4966523;28;20095;-78
2021/08/27 04:53:42;;;;;;;0.20;0.20;;;;;;;16.10;85.67;100033.28;4959858;28;20064;-79
2021/08/27 04:56:08;;;;;;;0.20;0.20;;;;;;;16.10;85.58;100027.81;4943690;29;20462;-78
2021/08/27 04:58:33;;;;;;;0.20;0.20;;;;;;;16.22;85.59;100030.16;4962183;28;20043;-80
2021/08/27 05:01:05;;;;;;;0.20;0.20;;;;;;;16.22;85.49;100024.69;4967819;28;20094;-77
2021/08/27 05:03:34;;;;;;;0.20;0.20;;;;;;;16.25;85.05;100029.78;4954648;28;20069;-78
2021/08/27 05:06:01;;;;;;;0.20;0.20;;;;;;;16.26;84.98;100031.47;4959309;28;20521;-77
2021/08/27 05:08:27;;;;;;;0.20;0.20;;;;;;;16.26;85.17;100026.03;4946243;28;20062;-77
2021/08/27 05:10:53;;;;;;;0.20;0.20;;;;;;;16.21;84.96;100020.28;4964102;28;20100;-77
2021/08/27 05:13:18;;;;;;;0.20;0.20;;;;;;;16.23;84.89;100027.22;4961997;28;20174;-76
2021/08/27 05:15:47;;;;;;;0.20;0.20;;;;;;;16.27;84.96;100023.13;4961120;28;20517;-75
2021/08/27 05:18:13;;;;;;;0.20;0.20;;;;;;;16.24;84.97;100030.84;4959959;28;20499;-77
2021/08/27 05:20:42;;;;;;;0.20;0.20;;;;;;;16.17;84.77;100027.13;4966391;28;20041;-77
2021/08/27 05:23:08;;;;;;;0.20;0.20;;;;;;;16.22;84.82;100035.59;4967419;28;20457;-79
2021/08/27 05:25:33;;;;;;;0.20;0.20;;;;;;;16.26;84.82;100034.22;4965116;28;20528;-78
2021/08/27 05:27:59;;;;;;;0.20;0.20;;;;;;;16.38;84.43;100039.09;4964239;28;20535;-77
2021/08/27 05:30:25;;;;;;;0.20;0.20;;;;;;;16.43;84.51;100035.84;4958070;28;20045;-78
2021/08/27 05:32:54;;;;;;;0.20;0.20;;;;;;;16.52;83.62;100051.13;4966280;28;20133;-78
2021/08/27 05:35:20;;;;;;;0.20;0.20;;;;;;;16.56;82.88;100048.88;4966804;28;20493;-83
2021/08/27 05:37:46;;;;;;;0.22;0.22;;;;;;;16.64;82.68;100049.69;4962232;28;20038;-84
2021/08/27 05:40:12;;;;;;;0.20;0.20;;;;;;;16.74;82.05;100065.00;4963893;28;20050;-82
2021/08/27 05:42:39;;;;;;;0.20;0.20;;;;;;;16.80;81.91;100061.56;4918201;28;20046;-83
2021/08/27 05:45:14;;;;;;;0.20;0.20;;;;;;;16.86;80.71;100049.91;4985671;28;20142;-80
2021/08/27 05:47:44;;;;;;;0.30;0.30;;;;;;;17.07;79.99;100044.59;4934536;28;20050;-82
2021/08/27 05:50:16;;;;;;;0.20;0.20;;;;;;;17.21;79.19;100047.56;4974117;28;20516;-82
2021/08/27 05:52:44;;;;;;;0.20;0.20;;;;;;;17.10;79.32;100051.59;4971094;28;20129;-81
2021/08/27 05:55:11;;;;;;;0.20;0.20;;;;;;;17.09;79.58;100061.66;4969256;28;20329;-81
2021/08/27 05:57:36;;;;;;;0.20;0.20;;;;;;;17.04;79.53;100052.34;4974153;28;20038;-78
2021/08/27 06:00:04;;;;;;;0.20;0.20;;;;;;;17.00;79.77;100057.31;4955931;28;20150;-81
2021/08/27 06:02:30;;;;;;;0.20;0.20;;;;;;;17.00;79.81;100059.19;4947120;28;20059;-83
2021/08/27 06:04:59;;;;;;;0.20;0.20;;;;;;;16.99;79.97;100061.06;4950861;28;20496;-81
2021/08/27 06:07:26;;;;;;;0.20;0.20;;;;;;;16.91;79.98;100063.84;4976127;28;20038;-81
2021/08/27 06:09:52;;;;;;;0.20;0.20;;;;;;;16.92;80.37;100065.56;4963264;28;20087;-81
2021/08/27 06:12:17;;;;;;;0.20;0.20;;;;;;;16.95;79.66;100061.63;4951702;28;20061;-78
2021/08/27 06:14:43;;;;;;;0.30;0.30;;;;;;;16.87;79.49;100066.09;4955575;28;20043;-79
2021/08/27 06:17:09;;;;;;;0.20;0.20;;;;;;;16.90;79.54;100067.63;4965000;28;20179;-81
2021/08/27 06:19:36;;;;;;;0.20;0.20;;;;;;;16.95;79.72;100059.72;4975744;28;20062;-86
2021/08/27 06:22:03;;;;;;;0.30;0.30;;;;;;;17.01;79.43;100063.63;4953235;28;20043;-81
2021/08/27 06:24:29;;;;;;;0.28;0.20;;;;;;;16.99;78.78;100052.88;4972448;28;20041;-82
2021/08/27 06:27:04;;;;;;;0.20;0.20;;;;;;;17.00;78.99;100064.63;4953442;28;20050;-83
2021/08/27 06:29:37;;;;;;;0.20;0.20;;;;;;;17.04;79.36;100071.47;4960857;28;20124;-83
2021/08/27 06:32:04;;;;;;;0.20;0.20;;;;;;;17.01;78.62;100056.28;4969647;28;20074;-82
2021/08/27 06:34:30;;;;;;;0.20;0.20;;;;;;;17.08;79.08;100054.50;4973205;28;20111;-82
2021/08/27 06:36:56;;;;;;;0.20;0.20;;;;;;;17.18;78.97;100064.31;4983519;28;20051;-80
2021/08/27 06:39:22;;;;;;;0.20;0.20;;;;;;;17.27;78.50;100065.97;4963029;28;20090;-85
2021/08/27 06:41:49;;;;;;;0.20;0.20;;;;;;;17.35;78.06;100068.63;4968659;28;20470;-84
2021/08/27 06:44:16;;;;;;;0.20;0.20;;;;;;;17.48;78.06;100068.84;4966333;28;20043;-82
2021/08/27 06:46:43;;;;;;;0.20;0.20;;;;;;;17.51;77.08;100071.19;4949458;28;20044;-83
2021/08/27 06:49:11;;;;;;;0.20;0.20;;;;;;;17.63;76.87;100068.88;4965967;28;20058;-80
2021/08/27 06:51:40;;;;;;;0.30;0.30;;;;;;;17.69;76.01;100067.25;4949483;28;20042;-79
2021/08/27 06:54:07;;;;;;;0.30;0.30;;;;;;;17.81;75.82;100060.34;4961791;28;20043;-83
2021/08/27 06:56:34;;;;;;;0.20;0.20;;;;;;;17.97;74.97;100071.06;4969188;28;20054;-81
2021/08/27 06:59:02;;;;;;;0.30;0.30;;;;;;;18.25;73.99;100073.16;4966495;28;20035;-81
2021/08/27 07:01:29;;;;;;;0.30;0.30;;;;;;;18.59;72.84;100079.88;4963525;28;20046;-83
2021/08/27 07:03:55;;;;;;;0.30;0.30;;;;;;;18.86;71.58;100075.56;4964664;28;20039;-84
2021/08/27 07:06:21;;;;;;;0.30;0.30;;;;;;;19.13;70.71;100082.16;4967165;28;20057;-83
2021/08/27 07:08:48;;;;;;;0.30;0.30;;;;;;;19.44;68.99;100077.16;4970763;28;20528;-83
2021/08/27 07:11:20;;;;;;;0.40;0.40;;;;;;;19.85;68.29;100070.94;4973607;28;20081;-81
2021/08/27 07:13:50;;;;;;;0.40;0.40;;;;;;;20.34;65.51;100069.97;4951240;28;20051;-82
2021/08/27 07:16:19;;;;;;;0.50;0.50;;;;;;;20.75;63.98;100079.22;4980506;28;20133;-81
2021/08/27 07:18:45;;;;;;;0.40;0.40;;;;;;;20.92;62.78;100073.13;4957635;28;20035;-84
2021/08/27 07:21:15;;;;;;;0.40;0.40;;;;;;;21.06;62.19;100073.13;4982709;28;20049;-81
2021/08/27 07:23:40;;;;;;;1.08;1.08;;;;;;;22.32;58.63;100068.41;4983595;28;20093;-82
2021/08/27 07:26:07;;;;;;;0.90;0.90;;;;;;;23.66;54.59;100077.56;4950307;28;20130;-85
2021/08/27 07:28:36;;;;;;;1.00;1.00;;;;;;;24.52;52.26;100084.09;4958303;28;20039;-82
2021/08/27 07:31:04;;;;;;;0.40;0.40;;;;;;;24.71;51.67;100069.16;4935264;29;20454;-85
2021/08/27 07:33:44;;;;;;;;;;;;;;;24.21;52.21;100071.28;4945127;29;20062;-82
2021/08/27 07:36:21;;;;;;;0.50;0.50;;;;;;;23.93;52.65;100063.50;4954870;28;20038;-82
2021/08/27 07:39:17;;;;;;;1.20;1.20;;;;;;;25.40;49.02;100079.88;4929292;28;20046;-82
2021/08/27 07:41:45;;;;;;;;;;;;;;;25.66;47.86;100084.97;4963052;28;20039;-83
2021/08/27 07:44:12;;;;;;;0.40;0.40;;;;;;;25.14;49.26;100087.53;4957328;28;20024;-83
2021/08/27 07:46:46;;;;;;;0.40;0.40;;;;;;;24.44;50.40;100081.66;4970935;28;20062;-81
2021/08/27 07:49:14;;;;;;;0.50;0.50;;;;;;;24.10;51.49;100080.34;4967722;28;20051;-83
2021/08/27 07:51:47;;;;;;;0.60;0.60;;;;;;;24.39;50.68;100089.75;4940534;28;20075;-83
2021/08/27 07:54:14;;;;;;;0.50;0.50;;;;;;;24.56;49.77;100085.34;4963267;28;20077;-84
2021/08/27 07:56:43;;;;;;;0.70;0.70;;;;;;;24.81;49.40;100084.38;4964783;28;20043;-82
2021/08/27 07:59:12;;;;;;;1.10;1.10;;;;;;;25.92;46.32;100088.38;4969335;28;20066;-83
2021/08/27 08:01:41;;;;;;;0.90;0.90;;;;;;;26.29;45.05;100088.09;4958321;28;20035;-82
2021/08/27 08:04:29;;;;;;;0.60;0.60;;;;;;;26.46;45.25;100083.53;4964611;23;20063;-86
2021/08/27 08:07:01;;;;;;;0.50;0.50;;;;;;;26.08;46.17;100082.13;4908954;28;20038;-84
2021/08/27 08:09:34;;;;;;;0.60;0.60;;;;;;;26.15;45.90;100102.25;4964135;28;20069;-84
2021/08/27 08:12:00;;;;;;;0.60;0.60;;;;;;;26.17;45.68;100086.19;4932821;28;20449;-84
2021/08/27 08:14:35;;;;;;;0.38;0.38;;;;;;;25.48;47.11;100093.38;4941034;28;20050;-82
2021/08/27 08:17:40;;;;;;;0.30;0.30;;;;;;;24.81;48.81;100085.22;4899516;28;20062;-85
2021/08/27 08:20:39;;;;;;;0.30;0.30;;;;;;;24.35;49.29;100089.38;5001719;23;20070;-83
2021/08/27 08:23:17;;;;;;;0.40;0.40;;;;;;;24.05;50.16;100083.78;4942102;29;20047;-84
2021/08/27 08:25:54;;;;;;;0.70;0.70;;;;;;;24.52;49.08;100090.47;4964189;28;20082;-84
2021/08/27 08:28:32;;;;;;;1.10;1.10;;;;;;;25.93;46.28;100090.94;4956157;28;20091;-83
2021/08/27 08:31:08;;;;;;;1.00;1.00;;;;;;;27.05;43.20;100086.91;4923801;29;20062;-84
2021/08/27 08:33:52;;;;;;;0.90;0.90;;;;;;;27.89;41.62;100098.13;4931807;29;20039;-83
2021/08/27 08:36:29;;;;;;;0.90;0.90;;;;;;;27.99;41.78;100097.44;4922574;29;20469;-84
2021/08/27 08:38:56;;;;;;;1.00;1.00;;;;;;;28.90;39.42;100097.00;4919582;29;20131;-82
2021/08/27 08:41:23;;;;;;;0.90;0.90;;;;;;;29.47;38.35;100092.84;4936803;29;20043;-83
2021/08/27 08:43:50;;;;;;;1.00;1.00;;;;;;;29.80;37.73;100088.97;4936041;29;20036;-81
2021/08/27 08:46:17;;;;;;;0.90;0.90;;;;;;;29.95;37.00;100085.47;4953973;28;20058;-82
2021/08/27 08:48:46;;;;;;;0.90;0.90;;;;;;;30.22;36.52;100080.63;4945274;28;20074;-84
2021/08/27 08:51:14;;;;;;;0.90;0.90;;;;;;;30.79;35.67;100081.75;4948888;29;20063;-84
2021/08/27 08:53:45;;;;;;;0.80;0.80;;;;;;;31.01;35.09;100086.25;4936079;28;20039;-83
2021/08/27 08:56:13;;;;;;;0.90;0.90;;;;;;;31.13;34.43;100078.47;4940725;29;20447;-83
2021/08/27 08:58:39;;;;;;;0.95;0.95;;;;;;;30.84;34.76;100076.19;4925209;29;20298;-81
2021/08/27 09:01:12;;;;;;;0.90;0.90;;;;;;;31.31;33.93;100080.78;4959738;28;20087;-82
2021/08/27 09:03:42;;;;;;;1.02;1.02;;;;;;;31.82;33.59;100080.78;4950847;28;20043;-83
2021/08/27 09:06:09;;;;;;;0.95;0.95;;;;;;;32.31;32.98;100077.31;4939599;29;20090;-85
2021/08/27 09:08:38;;;;;;;0.90;0.90;;;;;;;31.86;33.68;100069.88;4929956;29;20063;-83
2021/08/27 09:11:21;;;;;;;0.80;0.80;;;;;;;31.73;33.78;100073.22;4940778;28;20178;-83
2021/08/27 09:13:58;;;;;;;0.80;0.80;;;;;;;31.71;33.51;100065.13;4940332;29;20130;-85
2021/08/27 09:16:28;;;;;;;0.80;0.80;;;;;;;31.72;34.09;100064.00;4945638;29;20043;-84
2021/08/27 09:18:59;;;;;;;0.85;0.85;;;;;;;32.25;33.68;100072.00;4922605;29;20186;-84
2021/08/27 09:21:46;;;;;;;0.80;0.80;;;;;;;32.40;32.72;100075.66;4929166;29;20027;-83
2021/08/27 09:24:25;;;;;;;0.80;0.80;;;;;;;32.19;32.15;100074.00;4921270;29;20055;-84
2021/08/27 09:26:59;;;;;;;;;;;;;;;32.16;32.58;100077.38;4956536;28;20047;-83
2021/08/27 09:29:45;;;;;;;0.80;0.80;;;;;;;31.91;33.31;100067.91;4958179;28;19946;-84
2021/08/27 09:32:27;;;;;;;0.80;0.80;;;;;;;32.24;32.58;100070.34;4946283;28;20040;-83
2021/08/27 09:35:05;;;;;;;0.70;0.70;;;;;;;32.51;32.03;100070.03;4923274;29;20057;-84
2021/08/27 09:37:46;;;;;;;0.73;0.73;;;;;;;31.82;33.77;100075.19;4935511;28;20094;-85
2021/08/27 09:40:18;;;;;;;0.80;0.80;;;;;;;31.96;33.12;100060.63;4956712;28;20042;-84
2021/08/27 09:42:52;;;;;;;0.68;0.68;;;;;;;32.12;32.96;100056.69;4928930;29;20039;-85
2021/08/27 09:45:44;;;;;;;0.60;0.60;;;;;;;32.41;32.93;100056.91;4933839;28;20427;-82
2021/08/27 09:48:13;;;;;;;0.65;0.65;;;;;;;32.19;32.83;100057.22;4943093;29;20130;-83
2021/08/27 09:50:48;;;;;;;0.60;0.60;;;;;;;31.96;33.57;100057.81;4937865;28;20047;-85
2021/08/27 09:53:16;;;;;;;0.60;0.60;;;;;;;32.23;32.96;100052.72;4953255;29;20035;-84
2021/08/27 09:56:06;;;;;;;0.70;0.70;;;;;;;32.99;31.82;100059.16;4945403;29;20047;-82
2021/08/27 09:58:50;;;;;;;0.57;0.57;;;;;;;32.57;31.60;100052.06;4927028;28;20054;-83
2021/08/27 10:01:16;;;;;;;0.60;0.60;;;;;;;32.27;32.89;100053.81;4955893;28;20047;-84
2021/08/27 10:03:46;;;;;;;0.60;0.60;;;;;;;32.26;33.12;100063.34;4947116;28;20102;-83
2021/08/27 10:06:31;;;;;;;0.65;0.65;;;;;;;32.08;33.44;100049.97;4942369;28;20035;-84
2021/08/27 10:09:01;;;;;;;0.50;0.50;;;;;;;31.82;33.65;100051.97;4962583;28;20429;-84
2021/08/27 10:11:29;;;;;;;0.50;0.50;;;;;;;32.30;32.33;100053.25;4947140;29;20583;-82
2021/08/27 10:13:56;;;;;;;0.60;0.60;;;;;;;31.90;32.91;100052.25;4925156;29;20091;-84
2021/08/27 10:16:23;;;;;;;0.50;0.50;;;;;;;31.79;32.03;100058.97;4946726;28;20069;-84
2021/08/27 10:18:50;;;;;;;0.60;0.60;;;;;;;31.20;32.77;100051.13;4947672;29;20134;-85
2021/08/27 10:21:20;;;;;;;0.50;0.50;;;;;;;31.21;33.07;100058.38;4942070;29;20053;-84
2021/08/27 10:23:47;;;;;;;0.60;0.60;;;;;;;31.01;33.29;100058.34;4924023;29;20045;-83
2021/08/27 10:26:21;;;;;;;0.60;0.60;;;;;;;30.28;34.15;100062.00;4938064;29;20071;-83
2021/08/27 10:29:07;;;;;;;;;;;;;;;;;;;;;
2021/08/27 10:31:51;;;;;;;0.60;0.60;;;;;;;29.98;34.37;100063.47;4925578;28;20047;-85
2021/08/27 10:34:38;;;;;;;0.70;0.70;;;;;;;30.49;34.14;100058.16;4949075;29;20050;-85
2021/08/27 10:37:09;;;;;;;0.60;0.60;;;;;;;31.02;32.59;100054.44;4934654;29;20085;-83
2021/08/27 10:39:45;;;;;;;0.60;0.60;;;;;;;31.18;32.87;100047.75;4948864;29;20031;-82
2021/08/27 10:42:48;;;;;;;0.60;0.60;;;;;;;30.97;32.88;100047.75;4939772;28;20039;-85
2021/08/27 10:45:37;;;;;;;0.50;0.50;;;;;;;30.81;33.01;100048.81;4919179;29;20075;-82
2021/08/27 10:48:17;;;;;;;0.60;0.60;;;;;;;30.71;33.31;100048.75;4925290;28;20051;-83
2021/08/27 10:50:48;;;;;;;0.60;0.60;;;;;;;31.04;32.62;100047.44;4942496;29;20051;-83
2021/08/27 10:53:38;;;;;;;0.60;0.60;;;;;;;31.30;32.85;100050.28;4932742;29;20047;-84
2021/08/27 10:56:40;;;;;;;0.57;0.57;;;;;;;30.54;31.90;100043.41;4943287;28;20062;-82
2021/08/27 10:59:08;;;;;;;0.60;0.60;;;;;;;30.19;33.44;100046.88;4937738;28;20115;-84
2021/08/27 11:01:36;;;;;;;0.60;0.60;;;;;;;30.15;33.28;100052.13;4934894;29;20019;-83
2021/08/27 11:04:26;;;;;;;0.60;0.60;;;;;;;30.04;33.02;100051.22;4936490;29;20094;-83
2021/08/27 11:07:04;;;;;;;0.60;0.60;;;;;;;30.34;32.72;100052.50;4950184;28;20157;-83
2021/08/27 11:09:32;;;;;;;0.60;0.60;;;;;;;30.52;32.68;100054.81;4913621;28;20450;-84
2021/08/27 11:12:11;;;;;;;0.70;0.70;;;;;;;30.94;32.32;100042.72;4935386;28;20057;-82
2021/08/27 11:14:47;;;;;;;0.60;0.60;;;;;;;31.01;31.49;100038.78;4937672;29;20143;-82
2021/08/27 11:17:14;;;;;;;0.60;0.60;;;;;;;31.35;30.85;100041.94;4933443;28;20039;-81
2021/08/27 11:19:55;;;;;;;0.60;0.60;;;;;;;30.71;30.84;100046.78;4941789;28;20593;-82
2021/08/27 11:22:30;;;;;;;0.60;0.60;;;;;;;30.47;31.74;100046.44;4960427;28;20118;-82
2021/08/27 11:25:02;;;;;;;0.50;0.50;;;;;;;30.62;32.39;100040.06;4932781;28;20056;-81
2021/08/27 11:27:30;;;;;;;0.60;0.60;;;;;;;30.58;31.53;100038.13;4949479;28;20228;-81
2021/08/27 11:30:29;;;;;;;0.50;0.50;;;;;;;30.92;32.03;100050.50;4967341;28;20049;-83
2021/08/27 11:32:59;;;;;;;0.50;0.50;;;;;;;30.40;32.23;100040.28;4947821;28;20043;-86
2021/08/27 11:35:29;;;;;;;0.50;0.50;;;;;;;30.97;31.32;100042.16;4954484;28;20363;-83
2021/08/27 11:38:08;;;;;;;0.50;0.50;;;;;;;30.66;32.12;100045.94;4956282;28;20043;-85
2021/08/27 11:40:37;;;;;;;0.50;0.50;;;;;;;30.52;31.04;100043.66;4930219;28;20043;-82
2021/08/27 11:43:03;;;;;;;0.50;0.50;;;;;;;30.15;32.02;100035.38;4932999;28;20039;-83
2021/08/27 11:45:32;;;;;;;0.50;0.50;;;;;;;30.24;31.70;100038.50;4911094;28;20054;-83